Data for 03/02/2007

Time Sea-Level Adjusted Pressure Absolute Pressure Temperature Relative Humidity Dew Point   
(mb) (inHg) (mb) (inHg) (C) (F) (%) (C) (F)
00:05 1014 29.94 843 24.89 -10.1 13.8 64 -15.6 3.9
00:10 1014 29.94 843 24.89 -9.7 14.5 64 -15.3 4.5
00:15 1014 29.94 844 24.92 -9.4 15 64 -15.1 4.8
00:20 1014 29.94 844 24.92 -9 15.8 61 -15.3 4.5
00:25 1015 29.97 844 24.92 -8.7 16.3 61 -15 5
00:30 1015 29.97 844 24.92 -8.6 16.5 61 -14.9 5.2
00:35 1015 29.97 844 24.92 -8.6 16.6 62 -14.6 5.6
00:40 1015 29.97 844 24.92 -8.6 16.6 62 -14.7 5.6
00:45 1015 29.97 844 24.92 -8.6 16.6 62 -14.6 5.6
00:50 1015 29.97 844 24.92 -8.6 16.5 62 -14.6 5.7
00:55 1015 29.97 844 24.92 -8.7 16.4 63 -14.6 5.8
01:00 1015 29.97 844 24.92 -8.8 16.2 64 -14.4 6
01:05 1015 29.97 844 24.92 -8.9 16 65 -14.4 6
01:10 1015 29.97 844 24.92 -9.2 15.5 68 -14 6.8
01:15 1015 29.97 844 24.92 -9.3 15.3 72 -13.5 7.7
01:20 1015 29.97 844 24.92 -9.4 15.1 74 -13.1 8.3
01:25 1015 29.97 844 24.92 -9.6 14.8 77 -12.9 8.7
01:30 1015 29.97 844 24.92 -9.7 14.6 79 -12.7 9.1
01:35 1015 29.97 845 24.95 -9.7 14.5 81 -12.4 9.6
01:40 1015 29.97 845 24.95 -9.8 14.4 81 -12.4 9.7
01:45 1015 29.97 845 24.95 -9.8 14.4 82 -12.3 9.8
01:50 1015 29.97 845 24.95 -9.8 14.5 83 -12.2 10.1
01:55 1015 29.97 845 24.95 -10 14.1 83 -12.3 9.9
02:00 1016 30 845 24.95 -10.1 13.8 84 -12.3 9.9
02:05 1016 30 845 24.95 -10.1 13.9 84 -12.3 9.9
02:10 1016 30 845 24.95 -9.9 14.1 83 -12.3 9.9
02:15 1016 30 845 24.95 -9.7 14.6 80 -12.5 9.5
02:20 1016 30 845 24.95 -9.4 15 78 -12.5 9.4
02:25 1016 30 845 24.95 -9.1 15.6 75 -12.7 9.1
02:30 1016 30 845 24.95 -8.9 16 74 -12.7 9.2
02:35 1016 30 845 24.95 -9.2 15.5 76 -12.6 9.3
02:40 1016 30 845 24.95 -9.6 14.7 77 -13 8.6
02:45 1016 30 845 24.95 -9.7 14.6 75 -13.3 8.1
02:50 1016 30 845 24.95 -9.6 14.7 74 -13.5 7.8
02:55 1016 30 845 24.95 -9.5 14.9 75 -13.1 8.4
03:00 1016 30 845 24.95 -9.4 15.1 77 -12.8 9
03:05 1016 30 845 24.95 -9.4 15.1 74 -13.2 8.3
03:10 1016 30 845 24.95 -9.3 15.2 72 -13.5 7.7
03:15 1016 30 845 24.95 -9.5 15 72 -13.6 7.5
03:20 1016 30 845 24.95 -9.4 15 73 -13.5 7.7
03:25 1016 30 845 24.95 -9.1 15.6 71 -13.5 7.7
03:30 1016 30 845 24.95 -8.9 16.1 67 -14 6.9
03:35 1016 30 845 24.95 -8.7 16.4 65 -14.2 6.5
03:40 1016 30 845 24.95 -8.5 16.7 63 -14.4 6.1
03:45 1016 30 846 24.98 -8.5 16.8 67 -13.5 7.7
03:50 1016 30 846 24.98 -8.5 16.7 65 -14 6.8
03:55 1017 30.03 846 24.98 -8.5 16.8 65 -14 6.8
04:00 1017 30.03 846 24.98 -8.4 16.8 65 -13.9 6.9
04:05 1017 30.03 846 24.98 -8.4 16.8 62 -14.4 6.1
04:10 1017 30.03 846 24.98 -8.4 16.9 63 -14.2 6.5
04:15 1017 30.03 846 24.98 -8.4 16.8 63 -14.3 6.2
04:20 1017 30.03 846 24.98 -8.5 16.7 63 -14.3 6.3
04:25 1017 30.03 846 24.98 -8.6 16.5 64 -14.2 6.4
04:30 1017 30.03 846 24.98 -8.6 16.5 64 -14.2 6.4
04:35 1017 30.03 846 24.98 -8.6 16.4 64 -14.2 6.4
04:40 1017 30.03 846 24.98 -8.7 16.3 65 -14.2 6.5
04:45 1017 30.03 846 24.98 -8.8 16.2 65 -14.1 6.6
04:50 1017 30.03 846 24.98 -8.8 16.2 65 -14.2 6.4
04:55 1017 30.03 846 24.98 -8.8 16.2 65 -14.1 6.5
05:00 1017 30.03 846 24.98 -8.7 16.3 65 -14.1 6.6
05:05 1017 30.03 847 25.01 -8.6 16.5 65 -14 6.8
05:10 1017 30.03 847 25.01 -8.5 16.7 66 -13.8 7.2
05:15 1017 30.03 847 25.01 -8.5 16.6 67 -13.7 7.3
05:20 1018 30.06 847 25.01 -8.6 16.6 67 -13.5 7.6
05:25 1018 30.06 847 25.01 -8.7 16.4 69 -13.4 8
05:30 1018 30.06 847 25.01 -8.7 16.4 68 -13.6 7.5
05:35 1018 30.06 847 25.01 -8.6 16.5 68 -13.5 7.7
05:40 1018 30.06 847 25.01 -8.5 16.7 68 -13.4 7.9
05:45 1018 30.06 847 25.01 -8.5 16.8 69 -13.1 8.4
05:50 1018 30.06 847 25.01 -8.5 16.6 69 -13.3 8.1
05:55 1018 30.06 847 25.01 -8.7 16.4 70 -13.2 8.2
06:00 1018 30.06 847 25.01 -9 15.9 72 -13.1 8.5
06:05 1018 30.06 848 25.04 -9 15.7 73 -13 8.5
06:10 1018 30.06 848 25.04 -9.2 15.5 74 -13 8.6
06:15 1019 30.09 848 25.04 -9.3 15.3 74 -13.1 8.5
06:20 1019 30.09 848 25.04 -9.3 15.3 75 -12.9 8.7
06:25 1019 30.09 848 25.04 -9.3 15.3 75 -12.9 8.8
06:30 1019 30.09 848 25.04 -9.3 15.3 76 -12.8 9
06:35 1019 30.09 848 25.04 -9.1 15.6 71 -13.4 7.9
06:40 1019 30.09 848 25.04 -9 15.9 72 -13.2 8.2
06:45 1019 30.09 848 25.04 -8.8 16.3 68 -13.6 7.5
06:50 1019 30.09 848 25.04 -8.8 16.2 67 -13.9 7
06:55 1019 30.09 848 25.04 -8.9 16.1 67 -13.9 7
07:00 1019 30.09 848 25.04 -8.7 16.3 67 -13.8 7.1
07:05 1019 30.09 848 25.04 -8.6 16.5 65 -14.1 6.6
07:10 1019 30.09 848 25.04 -8.6 16.6 65 -14 6.8
07:15 1019 30.09 849 25.07 -8.5 16.7 65 -14 6.8
07:20 1019 30.09 849 25.07 -8.5 16.8 66 -13.8 7.2
07:25 1020 30.12 849 25.07 -8.4 16.9 64 -14 6.9
07:30 1020 30.12 849 25.07 -8.4 16.9 65 -13.9 6.9
07:35 1020 30.12 849 25.07 -8.3 17 64 -14 6.8
07:40 1020 30.12 849 25.07 -8.3 17 64 -13.9 6.9
07:45 1020 30.12 849 25.07 -8.3 17.1 65 -13.8 7.2
07:50 1020 30.12 849 25.07 -8.2 17.3 65 -13.7 7.3
07:55 1020 30.12 849 25.07 -7.9 17.7 64 -13.6 7.4
08:00 1020 30.12 849 25.07 -8.1 17.5 64 -13.6 7.4
08:05 1020 30.12 849 25.07 -7.8 17.9 64 -13.6 7.5
08:10 1020 30.12 849 25.07 -7.6 18.4 63 -13.5 7.7
08:15 1020 30.12 849 25.07 -7.4 18.6 62 -13.6 7.6
08:20 1020 30.12 849 25.07 -7.4 18.7 61 -13.8 7.2
08:25 1020 30.12 850 25.1 -7.5 18.6 61 -13.8 7.2
08:30 1020 30.12 850 25.1 -7.5 18.5 61 -13.8 7.2
08:35 1020 30.12 850 25.1 -7.3 18.8 61 -13.6 7.5
08:40 1020 30.12 850 25.1 -7.2 19 60 -13.8 7.2
08:45 1021 30.15 850 25.1 -7.1 19.3 59 -13.7 7.4
08:50 1021 30.15 850 25.1 -7 19.4 58 -14 6.8
08:55 1021 30.15 850 25.1 -6.8 19.7 56 -14.2 6.4
09:00 1021 30.15 850 25.1 -6.7 19.9 56 -14 6.7
09:05 1021 30.15 850 25.1 -6.3 20.6 55 -14 6.8
09:10 1021 30.15 850 25.1 -6.2 20.8 54 -14.1 6.7
09:15 1021 30.15 850 25.1 -6.3 20.7 55 -13.8 7.1
09:20 1021 30.15 850 25.1 -6.4 20.4 55 -14.1 6.5
09:25 1021 30.15 850 25.1 -6.2 20.8 54 -14 6.7
09:30 1021 30.15 850 25.1 -6.1 21.1 52 -14.3 6.3
09:35 1021 30.15 850 25.1 -5.9 21.5 52 -14.2 6.4
09:40 1021 30.15 850 25.1 -5.9 21.4 53 -14 6.7
09:45 1021 30.15 850 25.1 -5.9 21.5 52 -14.2 6.5
09:50 1021 30.15 850 25.1 -5.9 21.5 52 -14.2 6.5
09:55 1021 30.15 850 25.1 -5.8 21.6 53 -14 6.8
10:00 1021 30.15 850 25.1 -5.6 21.9 52 -13.9 6.9
10:05 1021 30.15 850 25.1 -5.4 22.3 51 -14 6.8
10:10 1021 30.15 850 25.1 -5.3 22.5 50 -14.1 6.7
10:15 1021 30.15 851 25.13 -5.2 22.7 51 -13.9 6.9
10:20 1021 30.15 851 25.13 -5.2 22.7 52 -13.6 7.6
10:25 1021 30.15 851 25.13 -4.7 23.5 50 -13.8 7.2
10:30 1021 30.15 851 25.13 -4.3 24.2 47 -14.2 6.5
10:35 1022 30.18 851 25.13 -4.5 24 47 -14 6.7
10:40 1022 30.18 851 25.13 -5.1 22.8 53 -13.4 7.9
10:45 1022 30.18 851 25.13 -4.8 23.3 49 -14 6.9
10:50 1022 30.18 851 25.13 -4.6 23.8 50 -13.5 7.6
10:55 1022 30.18 851 25.13 -4.4 24.1 48 -13.9 7
11:00 1022 30.18 851 25.13 -4.4 24 46 -14.3 6.3
11:05 1022 30.18 851 25.13 -4.5 23.9 49 -13.8 7.2
11:10 1022 30.18 851 25.13 -4.3 24.2 47 -13.9 6.9
11:15 1022 30.18 851 25.13 -4.5 23.8 47 -14.3 6.3
11:20 1022 30.18 851 25.13 -4.5 23.8 49 -13.7 7.3
11:25 1022 30.18 851 25.13 -3.8 25.1 46 -14 6.9
11:30 1022 30.18 851 25.13 -4.1 24.6 46 -14.2 6.5
11:35 1022 30.18 851 25.13 -4.7 23.5 48 -14.2 6.4
11:40 1022 30.18 851 25.13 -4.1 24.6 46 -14.2 6.5
11:45 1022 30.18 851 25.13 -3.7 25.4 46 -13.6 7.5
11:50 1022 30.18 851 25.13 -3.6 25.5 45 -13.9 7
11:55 1022 30.18 851 25.13 -4.1 24.6 48 -13.6 7.5
12:00 1022 30.18 851 25.13 -4.2 24.5 47 -13.9 6.9
12:05 1022 30.18 851 25.13 -3.6 25.6 44 -14.1 6.6
12:10 1022 30.18 851 25.13 -3.2 26.2 43 -14 6.7
12:15 1022 30.18 851 25.13 -3 26.6 42 -14.2 6.5
12:20 1022 30.18 851 25.13 -3.3 26.1 43 -14.1 6.7
12:25 1022 30.18 851 25.13 -3.4 25.9 42 -14.6 5.7
12:30 1022 30.18 851 25.13 -2.9 26.7 41 -14.3 6.3
12:35 1022 30.18 851 25.13 -2.5 27.5 40 -14.5 6
12:40 1022 30.18 851 25.13 -2.5 27.5 40 -14.3 6.3
12:45 1022 30.18 851 25.13 -2.9 26.7 43 -13.8 7.2
12:50 1022 30.18 851 25.13 -2.7 27.1 41 -14.4 6.1
12:55 1022 30.18 851 25.13 -3.4 25.8 43 -14.3 6.2
13:00 1022 30.18 851 25.13 -3.3 26 42 -14.4 6.1
13:05 1022 30.18 851 25.13 -3.8 25.2 43 -14.6 5.7
13:10 1022 30.18 851 25.13 -3.8 25.1 44 -14.4 6.1
13:15 1022 30.18 851 25.13 -3.4 25.9 42 -14.6 5.7
13:20 1022 30.18 851 25.13 -3.7 25.4 43 -14.7 5.6
13:25 1022 30.18 851 25.13 -3.6 25.6 40 -15.2 4.6
13:30 1022 30.18 851 25.13 -3.5 25.7 42 -14.6 5.7
13:35 1022 30.18 851 25.13 -3.4 25.9 41 -14.8 5.4
13:40 1022 30.18 851 25.13 -3.4 25.9 43 -14.4 6.1
13:45 1022 30.18 851 25.13 -3.2 26.3 41 -14.7 5.6
13:50 1022 30.18 851 25.13 -3.4 25.8 43 -14.3 6.3
13:55 1022 30.18 851 25.13 -4.1 24.6 46 -14.1 6.6
14:00 1022 30.18 852 25.16 -3.6 25.4 44 -14.3 6.3
14:05 1022 30.18 852 25.16 -2.5 27.5 40 -14.4 6.1
14:10 1022 30.18 852 25.16 -2.3 27.9 41 -13.8 7.1
14:15 1022 30.18 852 25.16 -1.5 29.3 38 -14.2 6.4
14:20 1022 30.18 852 25.16 -1.1 30.1 37 -14 6.7
14:25 1022 30.18 852 25.16 -1.6 29.1 40 -13.5 7.7
14:30 1022 30.18 852 25.16 -1.9 28.6 40 -13.8 7.1
14:35 1023 30.21 852 25.16 -2.4 27.7 40 -14.1 6.6
14:40 1023 30.21 852 25.16 -1.8 28.7 35 -15.3 4.4
14:45 1023 30.21 852 25.16 -0.9 30.4 37 -14 6.8
14:50 1023 30.21 852 25.16 -0.9 30.4 37 -14 6.9
14:55 1023 30.21 852 25.16 -1.2 29.9 37 -14.1 6.6
15:00 1023 30.21 852 25.16 -1.7 28.9 39 -13.9 7
15:05 1023 30.21 852 25.16 -2.3 27.9 40 -14.2 6.4
15:10 1023 30.21 852 25.16 -2.2 28.1 38 -14.6 5.7
15:15 1023 30.21 852 25.16 -2 28.5 37 -14.9 5.3
15:20 1023 30.21 852 25.16 -1.9 28.5 39 -14.2 6.4
15:25 1023 30.21 852 25.16 -1.9 28.5 39 -14.3 6.3
15:30 1023 30.21 852 25.16 -2 28.4 37 -15 5
15:35 1023 30.21 852 25.16 -1.8 28.7 37 -14.6 5.8
15:40 1023 30.21 852 25.16 -2.3 27.8 38 -14.7 5.6
15:45 1023 30.21 852 25.16 -2.4 27.7 38 -14.9 5.2
15:50 1023 30.21 852 25.16 -2.1 28.2 38 -14.8 5.4
15:55 1023 30.21 852 25.16 -2 28.5 37 -14.7 5.5
16:00 1023 30.21 852 25.16 -1.9 28.6 36 -15 5
16:05 1023 30.21 852 25.16 -1.5 29.4 35 -15.2 4.7
16:10 1023 30.21 852 25.16 -1.3 29.7 34 -15.3 4.5
16:15 1023 30.21 852 25.16 -1.2 29.9 33 -15.7 3.8
16:20 1023 30.21 852 25.16 -1.2 29.9 33 -15.4 4.2
16:25 1023 30.21 852 25.16 -0.8 30.6 32 -15.7 3.7
16:30 1023 30.21 852 25.16 -0.8 30.5 32 -15.5 4
16:35 1023 30.21 852 25.16 -0.5 31.1 31 -15.5 4.2
16:40 1023 30.21 852 25.16 -0.5 31 32 -15.5 4.2
16:45 1023 30.21 852 25.16 -0.7 30.8 32 -15.3 4.5
16:50 1023 30.21 852 25.16 -0.7 30.7 32 -15.3 4.4
16:55 1023 30.21 853 25.19 -0.7 30.7 32 -15.7 3.8
17:00 1023 30.21 852 25.16 -0.3 31.4 31 -15.5 4
17:05 1023 30.21 852 25.16 -0.2 31.7 30 -15.8 3.5
17:10 1023 30.21 852 25.16 -0.3 31.4 33 -14.8 5.3
17:15 1023 30.21 853 25.19 -0.4 31.4 32 -15.3 4.5
17:20 1023 30.21 853 25.19 -0.5 31.1 31 -15.6 3.9
17:25 1023 30.21 853 25.19 -0.9 30.4 32 -15.6 4
17:30 1023 30.21 853 25.19 -0.9 30.4 31 -15.9 3.4
17:35 1023 30.21 853 25.19 -1 30.2 32 -15.6 3.9
17:40 1023 30.21 853 25.19 -1 30.2 32 -15.8 3.5
17:45 1023 30.21 853 25.19 -0.9 30.3 32 -15.6 4
17:50 1023 30.21 853 25.19 -1.1 30.1 32 -15.7 3.7
17:55 1023 30.21 853 25.19 -1.7 29 35 -15.1 4.9
18:00 1023 30.21 853 25.19 -2.4 27.7 36 -15.4 4.3
18:05 1023 30.21 853 25.19 -3 26.5 38 -15.6 3.9
18:10 1023 30.21 853 25.19 -3.7 25.3 41 -15.1 4.8
18:15 1023 30.21 853 25.19 -4.3 24.3 44 -14.9 5.2
18:20 1023 30.21 853 25.19 -4.7 23.5 45 -15 5
18:25 1023 30.21 853 25.19 -5 22.9 45 -15.3 4.5
18:30 1023 30.21 853 25.19 -5.2 22.7 45 -15.5 4.1
18:35 1023 30.21 853 25.19 -5.3 22.5 44 -15.7 3.8
18:40 1023 30.21 853 25.19 -5.5 22.1 48 -14.9 5.2
18:45 1024 30.24 853 25.19 -6 21.1 52 -14.5 6
18:50 1024 30.24 853 25.19 -6.7 20 54 -14.4 6
18:55 1024 30.24 853 25.19 -7.1 19.2 57 -14.4 6.2
19:00 1024 30.24 853 25.19 -7.3 18.8 57 -14.4 6.1
19:05 1024 30.24 853 25.19 -7.4 18.7 59 -14.1 6.5
19:10 1024 30.24 853 25.19 -7.3 18.9 58 -14.2 6.4
19:15 1024 30.24 853 25.19 -7.4 18.8 58 -14.3 6.3
19:20 1024 30.24 853 25.19 -7.6 18.3 59 -14.3 6.2
19:25 1024 30.24 853 25.19 -7.9 17.9 60 -14.4 6
19:30 1024 30.24 853 25.19 -8.1 17.5 60 -14.5 5.8
19:35 1024 30.24 853 25.19 -8.2 17.3 60 -14.5 5.8
19:40 1024 30.24 853 25.19 -8.3 17 60 -14.8 5.4
19:45 1024 30.24 853 25.19 -8.3 17 59 -15 4.9
19:50 1024 30.24 853 25.19 -8.1 17.5 57 -15.2 4.6
19:55 1024 30.24 853 25.19 -7.7 18.1 54 -15.4 4.3
20:00 1024 30.24 853 25.19 -7.8 18 55 -15.3 4.5
20:05 1024 30.24 853 25.19 -7.9 17.8 55 -15.5 4.1
20:10 1024 30.24 853 25.19 -8.1 17.4 56 -15.5 4.1
20:15 1024 30.24 853 25.19 -8.2 17.3 55 -15.8 3.6
20:20 1024 30.24 853 25.19 -8.1 17.4 56 -15.4 4.2
20:25 1024 30.24 853 25.19 -8.4 16.8 57 -15.5 4.2
20:30 1024 30.24 853 25.19 -8.5 16.7 56 -15.7 3.7
20:35 1024 30.24 853 25.19 -8.6 16.5 56 -15.8 3.5
20:40 1024 30.24 853 25.19 -8.8 16.1 58 -15.7 3.8
20:45 1024 30.24 853 25.19 -9 15.8 59 -15.6 3.9
20:50 1024 30.24 853 25.19 -9.1 15.7 59 -15.7 3.7
20:55 1024 30.24 853 25.19 -9.3 15.3 61 -15.4 4.2
21:00 1024 30.24 853 25.19 -9.5 14.9 62 -15.5 4.2
21:05 1024 30.24 853 25.19 -9.5 14.9 63 -15.4 4.4
21:10 1024 30.24 853 25.19 -9.2 15.4 61 -15.5 4.2
21:15 1024 30.24 853 25.19 -9.3 15.3 60 -15.6 4
21:20 1024 30.24 853 25.19 -9.5 14.8 62 -15.5 4.2
21:25 1024 30.24 853 25.19 -9.8 14.4 63 -15.5 4.1
21:30 1024 30.24 853 25.19 -10.1 13.7 65 -15.6 4
21:35 1024 30.24 853 25.19 -10.3 13.5 65 -15.6 3.9
21:40 1024 30.24 853 25.19 -10.2 13.6 65 -15.7 3.7
21:45 1024 30.24 854 25.22 -10.4 13.2 65 -15.7 3.7
21:50 1024 30.24 854 25.22 -10.6 12.9 65 -15.9 3.4
21:55 1024 30.24 854 25.22 -10.4 13.2 65 -15.8 3.6
22:00 1024 30.24 854 25.22 -10.2 13.6 64 -15.8 3.5
22:05 1025 30.27 854 25.22 -10.2 13.7 63 -16 3.2
22:10 1025 30.27 854 25.22 -9.8 14.4 60 -16.1 2.9
22:15 1025 30.27 854 25.22 -9.7 14.5 60 -16.1 3.1
22:20 1025 30.27 854 25.22 -9.1 15.6 59 -15.8 3.6
22:25 1025 30.27 854 25.22 -9.4 15.1 60 -15.8 3.6
22:30 1025 30.27 854 25.22 -9.6 14.8 60 -16 3.3
22:35 1025 30.27 854 25.22 -9.6 14.7 61 -15.9 3.4
22:40 1025 30.27 854 25.22 -9.6 14.7 60 -16 3.3
22:45 1025 30.27 854 25.22 -9.3 15.3 58 -16.1 3.1
22:50 1025 30.27 854 25.22 -9.4 15.2 58 -16.1 3.1
22:55 1025 30.27 854 25.22 -9.7 14.5 59 -16.4 2.5
23:00 1025 30.27 854 25.22 -10 14 60 -16.4 2.5
23:05 1025 30.27 854 25.22 -10.6 12.9 62 -16.5 2.3
23:10 1025 30.27 854 25.22 -10.6 12.9 61 -16.8 1.7
23:15 1025 30.27 854 25.22 -10.8 12.5 62 -16.8 1.8
23:20 1025 30.27 854 25.22 -11.1 12.1 64 -16.7 2
23:25 1025 30.27 854 25.22 -11.1 12 64 -16.6 2.1
23:30 1025 30.27 854 25.22 -10.9 12.4 62 -16.9 1.7
23:35 1025 30.27 854 25.22 -10.5 13.2 60 -16.8 1.8
23:40 1025 30.27 854 25.22 -10 14.1 59 -16.5 2.3
23:45 1025 30.27 854 25.22 -9.8 14.3 58 -16.6 2.1
23:50 1025 30.27 854 25.22 -9 15.9 53 -16.9 1.6
23:55 1025 30.27 854 25.22 -9.2 15.5 54 -16.9 1.7
24:00 1025 30.27 854 25.22 -9.2 15.5 54 -16.9 1.7